Time;durP1;ratioP1;P1;durP2;ratioP2;P2;SDS_P1;SDS_P2;PMS_P1;PMS_P2;Temp;Humidity;BMP_temperature;BMP_pressure;BME280_temperature;BME280_humidity;BME280_pressure;Samples;Min_cycle;Max_cycle;Signal;HPM_P1;HPM_P2
2021/07/09 00:02:07;;;;;;;7.28;3.02;;;;;;;18.98;58.67;101330.28;1907434;75;21027;-62
2021/07/09 00:04:37;;;;;;;13.93;3.05;;;;;;;18.92;58.97;101332.48;1907386;75;21466;-62
2021/07/09 00:07:06;;;;;;;7.55;2.40;;;;;;;18.85;59.06;101331.55;1907432;75;21007;-63
2021/07/09 00:09:35;;;;;;;9.28;3.25;;;;;;;18.83;59.22;101336.14;1907292;75;21042;-63
2021/07/09 00:12:04;;;;;;;16.82;10.98;;;;;;;18.79;59.79;101338.56;1907472;75;21129;-63
2021/07/09 00:14:36;;;;;;;21.23;17.25;;;;;;;18.75;60.50;101333.05;1907494;75;21019;-63
2021/07/09 00:17:06;;;;;;;17.02;13.38;;;;;;;18.73;61.18;101338.97;1907391;75;21038;-62
2021/07/09 00:19:34;;;;;;;18.48;10.28;;;;;;;18.70;62.08;101336.03;1907496;75;21551;-62
2021/07/09 00:22:04;;;;;;;12.63;8.30;;;;;;;18.67;62.57;101336.70;1907244;75;21011;-63
2021/07/09 00:24:33;;;;;;;15.18;7.30;;;;;;;18.66;62.75;101336.31;1907421;75;21470;-63
2021/07/09 00:27:03;;;;;;;20.05;7.30;;;;;;;18.62;62.86;101340.13;1907420;75;21046;-62
2021/07/09 00:29:32;;;;;;;13.98;7.25;;;;;;;18.56;63.37;101340.53;1907409;75;21128;-62
2021/07/09 00:32:01;;;;;;;17.27;6.80;;;;;;;18.49;63.44;101341.38;1907592;75;21031;-62
2021/07/09 00:34:29;;;;;;;13.38;6.35;;;;;;;18.38;64.23;101338.53;1907254;74;21011;-63
2021/07/09 00:36:58;;;;;;;11.95;7.03;;;;;;;18.31;64.66;101340.72;1907399;75;21155;-62
2021/07/09 00:39:27;;;;;;;23.32;10.72;;;;;;;18.19;65.24;101344.16;1907425;75;21070;-62
2021/07/09 00:41:55;;;;;;;17.73;9.30;;;;;;;18.07;65.72;101331.94;1907381;75;21075;-62
2021/07/09 00:44:24;;;;;;;16.15;8.20;;;;;;;17.96;66.27;101335.73;1907502;75;21075;-62
2021/07/09 00:46:53;;;;;;;18.73;7.53;;;;;;;17.86;66.96;101334.11;1907478;75;21038;-62
2021/07/09 00:49:21;;;;;;;27.27;17.20;;;;;;;17.80;67.54;101332.25;1907300;75;21082;-62
2021/07/09 00:51:50;;;;;;;30.25;18.80;;;;;;;17.73;67.94;101331.30;1907386;75;21015;-62
2021/07/09 00:54:19;;;;;;;29.57;18.57;;;;;;;17.68;67.95;101332.03;1907359;75;21477;-62
2021/07/09 00:56:49;;;;;;;23.27;15.80;;;;;;;17.61;68.13;101335.16;1907362;75;21078;-62
2021/07/09 00:59:23;;;;;;;18.70;11.43;;;;;;;17.53;68.22;101332.95;1907361;75;21548;-63
2021/07/09 01:01:51;;;;;;;14.45;7.65;;;;;;;17.54;68.08;101336.02;1907008;75;21051;-63
2021/07/09 01:04:21;;;;;;;19.57;8.55;;;;;;;17.53;67.93;101331.63;1907341;75;21038;-62
2021/07/09 01:06:50;;;;;;;20.68;9.00;;;;;;;17.51;68.24;101333.04;1907336;75;21062;-63
2021/07/09 01:09:18;;;;;;;16.52;7.78;;;;;;;17.47;68.92;101333.33;1907472;75;21183;-63
2021/07/09 01:11:50;;;;;;;19.52;7.20;;;;;;;17.45;68.85;101332.08;1907568;75;21059;-62
2021/07/09 01:14:20;;;;;;;12.30;6.62;;;;;;;17.46;68.89;101334.26;1907330;74;21086;-62
2021/07/09 01:16:51;;;;;;;15.15;8.13;;;;;;;17.45;68.75;101333.89;1906756;75;21114;-63
2021/07/09 01:19:21;;;;;;;9.98;5.85;;;;;;;17.44;68.79;101335.67;1907343;75;21136;-63
2021/07/09 01:21:51;;;;;;;10.68;5.12;;;;;;;17.42;68.64;101338.05;1907416;75;21007;-62
2021/07/09 01:24:19;;;;;;;7.58;3.75;;;;;;;17.41;68.67;101341.65;1907308;75;21442;-62
2021/07/09 01:26:48;;;;;;;10.80;4.50;;;;;;;17.36;68.88;101341.93;1907219;75;21195;-63
2021/07/09 01:29:17;;;;;;;10.28;4.72;;;;;;;17.26;69.24;101344.25;1907398;75;21026;-62
2021/07/09 01:31:46;;;;;;;13.05;5.17;;;;;;;17.20;69.54;101344.61;1907367;75;21062;-62
2021/07/09 01:34:14;;;;;;;9.58;5.20;;;;;;;17.17;69.51;101342.99;1907333;75;21559;-62
2021/07/09 01:36:43;;;;;;;15.43;6.85;;;;;;;17.13;69.59;101349.89;1907373;75;21031;-63
2021/07/09 01:39:12;;;;;;;9.58;7.47;;;;;;;17.10;69.86;101348.76;1907460;75;21035;-63
2021/07/09 01:41:41;;;;;;;14.15;11.50;;;;;;;17.10;69.86;101344.77;1898719;75;21478;-62
2021/07/09 01:44:10;;;;;;;16.82;14.25;;;;;;;17.05;70.01;101344.16;1898019;75;21055;-62
2021/07/09 01:46:39;;;;;;;14.63;12.30;;;;;;;16.95;70.28;101351.33;1898037;75;21106;-62
2021/07/09 01:49:07;;;;;;;14.53;11.48;;;;;;;16.90;70.69;101350.72;1898059;75;21562;-62
2021/07/09 01:51:36;;;;;;;13.62;8.15;;;;;;;16.85;70.95;101346.13;1897925;75;21063;-63
2021/07/09 01:54:05;;;;;;;12.07;6.40;;;;;;;16.85;70.97;101347.45;1898049;75;21003;-62
2021/07/09 01:56:33;;;;;;;7.37;5.58;;;;;;;16.81;71.00;101350.35;1898168;75;21066;-62
2021/07/09 01:59:02;;;;;;;7.35;5.12;;;;;;;16.73;71.15;101348.13;1898020;75;21116;-62
2021/07/09 02:01:31;;;;;;;12.28;5.85;;;;;;;16.73;71.58;101354.77;1898115;75;21055;-62
2021/07/09 02:03:59;;;;;;;10.15;5.20;;;;;;;16.71;71.71;101347.32;1898054;75;21055;-62
2021/07/09 02:06:28;;;;;;;9.70;4.70;;;;;;;16.71;71.77;101349.53;1897988;75;21129;-62
2021/07/09 02:08:57;;;;;;;7.35;4.12;;;;;;;16.76;71.56;101355.91;1898230;75;21063;-62
2021/07/09 02:11:26;;;;;;;9.08;4.05;;;;;;;16.80;71.44;101357.45;1898158;75;21058;-62
2021/07/09 02:13:54;;;;;;;7.37;3.67;;;;;;;16.83;71.43;101357.33;1898035;75;21141;-62
2021/07/09 02:16:23;;;;;;;5.42;3.92;;;;;;;16.89;71.35;101354.31;1898048;75;21062;-62
2021/07/09 02:18:52;;;;;;;6.08;3.33;;;;;;;16.94;71.26;101362.90;1897926;75;21074;-62
2021/07/09 02:21:21;;;;;;;28.47;5.83;;;;;;;17.02;71.29;101365.13;1898010;75;21086;-62
2021/07/09 02:23:50;;;;;;;7.10;3.30;;;;;;;17.10;71.29;101363.39;1897994;75;21071;-62
2021/07/09 02:26:18;;;;;;;4.45;3.17;;;;;;;17.20;71.17;101357.91;1898014;75;21565;-62
2021/07/09 02:28:47;;;;;;;8.70;3.70;;;;;;;17.32;71.12;101365.20;1898023;75;21083;-62
2021/07/09 02:31:16;;;;;;;5.65;3.65;;;;;;;17.41;70.80;101369.59;1897913;75;21070;-63
2021/07/09 02:33:44;;;;;;;6.03;3.50;;;;;;;17.50;70.67;101365.07;1897977;75;21121;-62
2021/07/09 02:36:13;;;;;;;8.53;3.65;;;;;;;17.65;70.61;101362.86;1898008;75;21050;-62
2021/07/09 02:38:42;;;;;;;4.87;3.00;;;;;;;17.79;70.59;101363.84;1898236;75;21098;-62
2021/07/09 02:41:10;;;;;;;6.25;2.90;;;;;;;17.96;70.57;101374.85;1901888;74;21043;-62
2021/07/09 02:43:39;;;;;;;7.72;2.92;;;;;;;18.13;70.54;101364.05;1907292;75;21114;-62
2021/07/09 02:46:08;;;;;;;7.05;2.98;;;;;;;18.35;70.34;101366.22;1907429;75;21638;-62
2021/07/09 02:48:36;;;;;;;6.85;2.80;;;;;;;18.56;70.01;101364.53;1907415;75;21042;-62
2021/07/09 02:51:05;;;;;;;5.97;2.80;;;;;;;18.87;69.36;101365.66;1907422;75;21129;-62
2021/07/09 02:53:34;;;;;;;7.92;2.47;;;;;;;19.21;68.73;101370.14;1907429;74;21156;-62
2021/07/09 02:56:02;;;;;;;7.80;2.47;;;;;;;19.38;68.43;101366.34;1907396;75;21070;-62
2021/07/09 02:58:31;;;;;;;7.15;2.40;;;;;;;19.57;68.00;101372.68;1907425;75;21165;-63
2021/07/09 03:01:00;;;;;;;9.33;2.80;;;;;;;19.76;67.41;101364.30;1907583;75;21063;-62
2021/07/09 03:03:29;;;;;;;7.95;2.70;;;;;;;19.99;66.85;101368.55;1907428;75;21160;-62
2021/07/09 03:05:57;;;;;;;8.95;2.90;;;;;;;20.20;66.20;101361.72;1907414;75;21062;-62
2021/07/09 03:08:26;;;;;;;7.05;2.67;;;;;;;20.38;65.29;101363.59;1907630;75;21050;-63
2021/07/09 03:10:54;;;;;;;7.50;2.45;;;;;;;20.60;64.43;101360.71;1907551;75;21050;-62
2021/07/09 03:13:23;;;;;;;8.20;2.22;;;;;;;20.79;63.43;101361.14;1907513;75;21039;-62
2021/07/09 03:15:52;;;;;;;5.85;2.30;;;;;;;20.97;62.50;101366.11;1907646;75;21128;-62
2021/07/09 03:18:20;;;;;;;7.65;2.27;;;;;;;21.14;61.57;101363.06;1907419;75;21058;-62
2021/07/09 03:20:49;;;;;;;6.05;1.90;;;;;;;21.32;60.97;101358.63;1907515;75;21078;-61
2021/07/09 03:23:18;;;;;;;7.65;1.98;;;;;;;21.46;60.30;101357.16;1907389;75;21038;-63
2021/07/09 03:25:47;;;;;;;8.78;1.82;;;;;;;21.58;59.62;101358.91;1907379;75;21082;-62
2021/07/09 03:28:16;;;;;;;15.10;3.25;;;;;;;21.70;59.26;101357.61;1907398;75;21486;-62
2021/07/09 03:30:45;;;;;;;17.23;3.33;;;;;;;21.81;58.55;101361.66;1907632;75;21014;-62
2021/07/09 03:33:14;;;;;;;6.58;2.20;;;;;;;21.90;58.01;101358.27;1907405;75;21477;-62
2021/07/09 03:35:43;;;;;;;5.87;2.10;;;;;;;21.98;57.48;101361.23;1907349;75;21060;-63
2021/07/09 03:38:12;;;;;;;5.62;1.80;;;;;;;22.06;57.12;101363.77;1907458;75;21163;-62
2021/07/09 03:40:41;;;;;;;7.50;2.27;;;;;;;22.11;56.54;101366.95;1907325;75;21035;-62
2021/07/09 03:43:10;;;;;;;6.67;2.05;;;;;;;22.18;56.19;101361.48;1898590;75;21122;-62
2021/07/09 03:45:39;;;;;;;6.42;2.05;;;;;;;22.25;55.87;101358.69;1898122;75;21544;-62
2021/07/09 03:48:08;;;;;;;6.00;1.98;;;;;;;22.22;55.51;101366.97;1897988;75;21141;-62
2021/07/09 03:50:36;;;;;;;7.28;2.42;;;;;;;22.24;55.39;101363.67;1897876;75;21556;-62
2021/07/09 03:53:06;;;;;;;9.18;1.90;;;;;;;22.28;55.23;101363.86;1897987;75;21097;-62
2021/07/09 03:55:35;;;;;;;6.37;1.70;;;;;;;22.34;55.01;101368.73;1897991;75;21039;-62
2021/07/09 03:58:04;;;;;;;9.00;1.95;;;;;;;22.32;54.59;101370.69;1897925;75;21517;-62
2021/07/09 04:00:33;;;;;;;7.53;1.85;;;;;;;22.31;54.13;101366.28;1898005;75;21042;-62
2021/07/09 04:03:01;;;;;;;6.37;1.87;;;;;;;22.35;53.91;101363.74;1897820;75;21030;-62
2021/07/09 04:05:30;;;;;;;3.58;1.77;;;;;;;22.35;53.62;101359.72;1897999;75;21177;-63
2021/07/09 04:07:59;;;;;;;5.92;2.98;;;;;;;22.38;53.22;101360.45;1897966;75;21067;-62
2021/07/09 04:10:28;;;;;;;5.87;2.15;;;;;;;22.39;53.02;101356.77;1898186;75;21051;-62
2021/07/09 04:12:57;;;;;;;9.13;3.00;;;;;;;22.47;52.92;101360.56;1897949;75;21474;-62
2021/07/09 04:15:25;;;;;;;11.88;2.50;;;;;;;22.57;52.47;101360.67;1897889;75;21121;-62
2021/07/09 04:17:54;;;;;;;21.57;3.72;;;;;;;22.70;52.18;101356.05;1897967;75;21054;-62
2021/07/09 04:20:23;;;;;;;6.05;1.87;;;;;;;22.86;52.04;101354.30;1897957;75;21047;-62
2021/07/09 04:22:53;;;;;;;5.75;2.08;;;;;;;23.11;51.85;101354.52;1897952;75;21082;-62
2021/07/09 04:25:22;;;;;;;11.65;2.30;;;;;;;23.32;51.45;101347.00;1898148;75;21054;-62
2021/07/09 04:27:51;;;;;;;9.08;2.67;;;;;;;23.61;51.42;101358.00;1897939;75;21082;-63
2021/07/09 04:30:21;;;;;;;15.03;3.65;;;;;;;23.93;50.65;101351.73;1897948;75;21619;-62
2021/07/09 04:32:49;;;;;;;9.30;2.95;;;;;;;24.23;50.33;101352.23;1898081;75;21031;-62
2021/07/09 04:35:18;;;;;;;10.53;2.75;;;;;;;24.56;49.69;101354.83;1897969;75;21035;-62
2021/07/09 04:37:46;;;;;;;9.73;2.90;;;;;;;24.84;49.06;101339.27;1898240;75;21007;-62
2021/07/09 04:40:16;;;;;;;11.75;3.42;;;;;;;24.97;48.21;101344.40;1898073;75;21113;-62
2021/07/09 04:42:45;;;;;;;8.48;2.55;;;;;;;25.10;48.13;101345.95;1897837;75;21133;-62
2021/07/09 04:45:14;;;;;;;8.38;2.08;;;;;;;25.32;47.43;101347.06;1897945;75;21066;-62
2021/07/09 04:47:43;;;;;;;10.98;2.58;;;;;;;25.57;47.46;101349.69;1897962;75;21059;-62
2021/07/09 04:50:12;;;;;;;5.75;2.40;;;;;;;25.78;47.18;101351.36;1898098;75;21039;-62
2021/07/09 04:52:41;;;;;;;6.03;2.22;;;;;;;25.99;46.76;101347.19;1898083;75;21086;-62
2021/07/09 04:55:12;;;;;;;8.33;2.45;;;;;;;26.08;45.46;101349.00;1897838;75;21011;-62
2021/07/09 04:57:41;;;;;;;7.12;2.00;;;;;;;26.14;45.26;101348.41;1897958;75;21106;-62
2021/07/09 05:00:11;;;;;;;9.20;2.33;;;;;;;26.09;44.73;101350.69;1898067;75;21474;-62
2021/07/09 05:02:40;;;;;;;9.55;2.30;;;;;;;26.15;44.65;101354.64;1897918;75;21054;-62
2021/07/09 05:05:15;;;;;;;10.75;2.50;;;;;;;26.23;44.58;101342.63;1897961;75;21043;-62
2021/07/09 05:07:44;;;;;;;6.90;2.00;;;;;;;26.48;44.48;101342.44;1897849;75;21458;-62
2021/07/09 05:10:13;;;;;;;8.65;2.35;;;;;;;26.64;43.77;101338.29;1897943;75;21537;-62
2021/07/09 05:12:42;;;;;;;8.93;1.95;;;;;;;26.80;43.70;101340.31;1898058;75;21043;-62
2021/07/09 05:15:12;;;;;;;5.78;2.10;;;;;;;27.01;43.36;101344.11;1897988;75;21098;-62
2021/07/09 05:17:40;;;;;;;6.65;1.80;;;;;;;27.19;43.55;101340.04;1898069;75;21323;-62
2021/07/09 05:20:10;;;;;;;7.95;2.75;;;;;;;27.36;43.09;101345.16;1897802;75;21112;-63
2021/07/09 05:22:39;;;;;;;9.08;2.90;;;;;;;27.67;43.09;101341.53;1897905;75;21035;-62
2021/07/09 05:25:09;;;;;;;8.68;2.30;;;;;;;27.92;42.20;101342.56;1897939;75;21014;-62
2021/07/09 05:27:38;;;;;;;9.10;2.80;;;;;;;28.01;41.50;101347.02;1898087;75;21027;-62
2021/07/09 05:30:08;;;;;;;10.85;2.42;;;;;;;28.27;41.61;101347.52;1897929;75;21038;-62
2021/07/09 05:32:38;;;;;;;9.23;3.42;;;;;;;28.46;40.76;101349.15;1897918;75;21031;-63
2021/07/09 05:35:08;;;;;;;9.13;2.45;;;;;;;28.42;39.96;101340.98;1898040;75;21043;-62
2021/07/09 05:37:37;;;;;;;6.95;2.50;;;;;;;28.49;40.12;101342.88;1897960;75;21096;-62
2021/07/09 05:40:07;;;;;;;10.85;2.80;;;;;;;28.53;39.75;101341.23;1897932;75;21043;-62
2021/07/09 05:42:35;;;;;;;10.58;3.37;;;;;;;28.64;40.17;101334.16;1898545;75;21071;-62
2021/07/09 05:45:05;;;;;;;10.58;2.67;;;;;;;28.75;39.30;101336.56;1907245;75;21046;-62
2021/07/09 05:47:34;;;;;;;9.83;2.27;;;;;;;28.74;39.21;101340.30;1907420;75;21031;-62
2021/07/09 05:50:03;;;;;;;9.75;2.17;;;;;;;28.81;38.70;101335.92;1907326;75;21062;-62
2021/07/09 05:52:31;;;;;;;10.65;2.40;;;;;;;28.90;38.84;101333.22;1907315;75;21504;-62
2021/07/09 05:55:00;;;;;;;8.93;2.35;;;;;;;29.02;38.46;101333.25;1907432;75;21038;-62
2021/07/09 05:57:29;;;;;;;14.65;2.40;;;;;;;29.12;37.98;101327.67;1907313;75;21120;-63
2021/07/09 05:59:58;;;;;;;7.80;2.20;;;;;;;29.25;37.60;101330.76;1907298;75;21207;-62
2021/07/09 06:02:26;;;;;;;4.72;1.90;;;;;;;29.30;37.37;101326.20;1907278;75;21559;-62
2021/07/09 06:04:55;;;;;;;8.28;2.08;;;;;;;29.38;37.53;101319.41;1907538;75;21011;-62
2021/07/09 06:07:24;;;;;;;8.68;2.25;;;;;;;29.49;37.47;101324.48;1907506;75;21241;-62
2021/07/09 06:09:52;;;;;;;7.65;2.45;;;;;;;29.50;36.79;101319.94;1907430;75;21054;-62
2021/07/09 06:12:21;;;;;;;7.65;1.80;;;;;;;29.56;37.02;101322.80;1907216;75;21094;-62
2021/07/09 06:14:51;;;;;;;6.65;2.40;;;;;;;29.76;36.83;101321.13;1907304;75;21115;-62
2021/07/09 06:17:20;;;;;;;9.75;2.58;;;;;;;29.97;36.69;101319.20;1907378;75;21128;-62
2021/07/09 06:19:49;;;;;;;10.78;2.05;;;;;;;30.17;36.16;101314.23;1907321;75;21481;-62
2021/07/09 06:22:18;;;;;;;10.15;2.37;;;;;;;30.32;35.84;101307.55;1907333;75;21058;-62
2021/07/09 06:24:47;;;;;;;12.30;3.00;;;;;;;30.36;35.16;101303.48;1907212;75;21047;-62
2021/07/09 06:27:16;;;;;;;10.18;2.80;;;;;;;30.45;35.49;101305.14;1907428;75;21097;-62
2021/07/09 06:29:44;;;;;;;6.22;2.10;;;;;;;30.63;35.17;101300.81;1907286;75;21477;-62
2021/07/09 06:32:13;;;;;;;13.20;2.15;;;;;;;30.85;33.68;101299.67;1907400;75;21030;-62
2021/07/09 06:34:42;;;;;;;11.63;2.22;;;;;;;30.82;32.93;101301.37;1907548;75;21054;-62
2021/07/09 06:37:11;;;;;;;12.13;2.05;;;;;;;30.69;32.71;101293.32;1907556;75;21046;-62
2021/07/09 06:39:40;;;;;;;10.58;1.90;;;;;;;30.70;32.16;101295.00;1907440;75;21502;-62
2021/07/09 06:42:08;;;;;;;7.15;2.62;;;;;;;30.68;31.49;101291.61;1907529;75;21039;-62
2021/07/09 06:44:37;;;;;;;8.88;2.02;;;;;;;30.69;31.59;101290.60;1907376;74;21473;-62
2021/07/09 06:47:06;;;;;;;4.22;1.90;;;;;;;30.89;31.74;101284.69;1907410;75;21047;-62
2021/07/09 06:49:35;;;;;;;8.60;2.37;;;;;;;31.12;31.92;101286.92;1907393;75;21067;-62
2021/07/09 06:52:04;;;;;;;3.40;1.45;;;;;;;31.35;31.74;101281.97;1907374;75;21152;-62
2021/07/09 06:54:32;;;;;;;4.05;2.12;;;;;;;31.53;30.73;101282.52;1907418;75;21066;-62
2021/07/09 06:57:01;;;;;;;7.08;1.55;;;;;;;31.51;30.25;101295.98;1907461;75;21169;-62
2021/07/09 06:59:30;;;;;;;3.08;1.67;;;;;;;31.63;30.57;101284.12;1907557;75;21124;-62
2021/07/09 07:01:58;;;;;;;7.80;1.87;;;;;;;31.83;30.53;101275.73;1907381;75;21462;-62
2021/07/09 07:04:27;;;;;;;8.28;2.10;;;;;;;31.93;29.69;101280.40;1907337;75;21132;-62
2021/07/09 07:06:56;;;;;;;13.72;2.20;;;;;;;32.09;29.83;101274.45;1907428;75;21038;-62
2021/07/09 07:09:25;;;;;;;3.08;1.37;;;;;;;32.27;30.01;101268.09;1886361;74;21039;-61
2021/07/09 07:11:54;;;;;;;7.83;1.50;;;;;;;32.48;29.51;101263.22;1882159;76;21087;-61
2021/07/09 07:14:22;;;;;;;6.85;1.62;;;;;;;32.50;28.27;101265.23;1882347;76;21083;-61
2021/07/09 07:16:51;;;;;;;6.35;1.65;;;;;;;32.65;28.91;101259.77;1879940;76;21035;-62
2021/07/09 07:19:20;;;;;;;6.17;1.45;;;;;;;32.80;28.67;101269.78;1880612;76;21063;-62
2021/07/09 07:21:48;;;;;;;8.88;1.92;;;;;;;32.86;27.93;101254.00;1882134;76;20999;-61
2021/07/09 07:24:17;;;;;;;7.30;2.40;;;;;;;32.82;27.71;101267.70;1880853;76;21035;-61
2021/07/09 07:26:46;;;;;;;4.22;1.65;;;;;;;32.73;26.36;101256.59;1882395;76;21461;-61
2021/07/09 07:29:15;;;;;;;7.47;2.00;;;;;;;32.79;27.07;101240.28;1882284;76;21058;-63
2021/07/09 07:31:45;;;;;;;8.30;2.92;;;;;;;32.81;26.65;101245.55;1881299;76;21098;-62
2021/07/09 07:34:14;;;;;;;8.30;2.00;;;;;;;32.83;26.48;101240.25;1880710;76;21474;-61
2021/07/09 07:36:42;;;;;;;9.55;2.10;;;;;;;32.94;25.75;101242.95;1882557;76;21145;-62
2021/07/09 07:39:11;;;;;;;6.30;1.50;;;;;;;32.93;25.29;101239.08;1882779;76;21055;-61
2021/07/09 07:41:41;;;;;;;15.50;3.58;;;;;;;32.78;24.73;101230.44;1882537;76;21055;-61
2021/07/09 07:44:10;;;;;;;7.67;2.17;;;;;;;32.76;25.05;101235.24;1878564;76;21115;-61
2021/07/09 07:46:38;;;;;;;18.27;3.10;;;;;;;32.91;25.28;101230.25;1878601;76;21471;-62
2021/07/09 07:49:07;;;;;;;10.90;2.52;;;;;;;33.08;25.20;101231.65;1880002;76;21031;-61
2021/07/09 07:51:36;;;;;;;3.25;1.60;;;;;;;33.26;24.67;101238.03;1879250;76;21100;-61
2021/07/09 07:54:04;;;;;;;5.90;1.87;;;;;;;33.25;23.07;101234.95;1878652;76;21058;-61
2021/07/09 07:56:33;;;;;;;6.67;1.98;;;;;;;33.20;23.61;101226.02;1879241;76;21079;-62
2021/07/09 07:59:02;;;;;;;7.78;2.30;;;;;;;33.12;23.23;101227.51;1879515;76;21117;-61
2021/07/09 08:01:32;;;;;;;6.70;1.77;;;;;;;33.28;23.89;101227.22;1878633;76;21027;-61
2021/07/09 08:04:00;;;;;;;7.83;1.77;;;;;;;33.50;23.46;101226.34;1879288;76;21092;-61
2021/07/09 08:06:29;;;;;;;9.20;1.87;;;;;;;33.47;22.72;101221.58;1878861;76;21018;-61
2021/07/09 08:08:58;;;;;;;10.50;2.62;;;;;;;33.47;22.46;101228.93;1879541;76;21119;-61
2021/07/09 08:11:27;;;;;;;6.15;1.77;;;;;;;33.38;22.28;101220.05;1878913;76;21015;-61
2021/07/09 08:13:56;;;;;;;4.55;1.70;;;;;;;33.43;22.35;101209.91;1878718;76;21141;-61
2021/07/09 08:16:25;;;;;;;7.00;1.37;;;;;;;33.44;22.20;101232.91;1879995;76;21145;-61
2021/07/09 08:18:54;;;;;;;4.50;1.70;;;;;;;33.44;22.24;101224.73;1878174;76;21055;-61
2021/07/09 08:21:23;;;;;;;3.52;1.42;;;;;;;33.45;22.66;101208.66;1879438;76;21571;-62
2021/07/09 08:23:51;;;;;;;7.80;1.50;;;;;;;33.45;22.10;101220.94;1878694;76;21172;-62
2021/07/09 08:26:20;;;;;;;5.83;1.50;;;;;;;33.47;22.65;101216.65;1878938;76;21137;-62
2021/07/09 08:28:49;;;;;;;9.35;2.12;;;;;;;33.64;23.05;101220.80;1878942;76;21105;-61
2021/07/09 08:31:18;;;;;;;5.92;1.67;;;;;;;33.69;21.84;101222.08;1878693;76;21023;-61
2021/07/09 08:33:47;;;;;;;2.42;1.17;;;;;;;33.71;21.73;101220.81;1878681;76;21031;-61
2021/07/09 08:36:16;;;;;;;7.58;1.70;;;;;;;33.73;21.79;101214.62;1879069;76;21074;-61
2021/07/09 08:38:44;;;;;;;9.93;1.90;;;;;;;33.72;21.84;101212.95;1879356;76;21041;-61
2021/07/09 08:41:14;;;;;;;9.15;1.50;;;;;;;33.78;22.00;101206.67;1879594;76;21223;-62
2021/07/09 08:43:43;;;;;;;9.85;1.67;;;;;;;33.95;21.44;101203.61;1878644;76;21035;-62
2021/07/09 08:46:12;;;;;;;6.70;1.47;;;;;;;34.06;22.19;101208.48;1881389;76;21474;-62
2021/07/09 08:48:42;;;;;;;2.58;1.55;;;;;;;34.24;22.05;101206.59;1883214;76;21542;-61
2021/07/09 08:51:12;;;;;;;9.98;1.72;;;;;;;34.22;21.09;101207.33;1882363;76;21105;-62
2021/07/09 08:53:41;;;;;;;9.20;1.60;;;;;;;34.18;21.19;101204.16;1882541;76;21035;-62
2021/07/09 08:56:09;;;;;;;11.73;1.70;;;;;;;34.06;20.46;101193.45;1882836;76;21443;-61
2021/07/09 08:58:39;;;;;;;4.50;1.50;;;;;;;33.91;19.98;101200.97;1882568;76;21035;-61
2021/07/09 09:01:08;;;;;;;4.42;1.27;;;;;;;33.71;19.65;101190.78;1881897;76;21081;-62
2021/07/09 09:03:37;;;;;;;10.23;1.70;;;;;;;33.60;19.58;101185.86;1881989;76;21494;-62
2021/07/09 09:06:07;;;;;;;4.25;1.40;;;;;;;33.69;20.69;101194.77;1882508;76;21124;-62
2021/07/09 09:08:36;;;;;;;5.22;1.60;;;;;;;33.77;20.22;101191.86;1882647;76;21105;-62
2021/07/09 09:11:05;;;;;;;6.40;1.57;;;;;;;33.72;19.80;101181.56;1883061;76;21128;-62
2021/07/09 09:13:35;;;;;;;3.17;1.40;;;;;;;33.72;20.58;101192.48;1881950;76;21152;-64
2021/07/09 09:16:13;;;;;;;11.65;2.00;;;;;;;33.78;20.71;101173.91;1882725;76;21439;-61
2021/07/09 09:18:45;;;;;;;7.78;1.90;;;;;;;33.84;21.35;101178.55;1882617;76;21120;-62
2021/07/09 09:21:16;;;;;;;4.40;1.70;;;;;;;33.85;21.92;101180.78;1883999;76;21082;-62
2021/07/09 09:23:54;;;;;;;8.87;1.53;;;;;;;34.09;21.59;101176.67;1883199;76;21074;-61
2021/07/09 09:26:49;;;;;;;1.60;1.12;;;;;;;34.10;21.44;101179.70;1883042;76;21117;-61
2021/07/09 09:29:28;;;;;;;3.05;1.50;;;;;;;34.10;20.48;101178.34;1882735;76;21071;-62
2021/07/09 09:32:00;;;;;;;21.60;1.70;;;;;;;34.07;21.05;101178.77;1882728;75;21051;-62
2021/07/09 09:34:41;;;;;;;3.52;1.40;;;;;;;33.94;20.73;101175.95;1882130;76;21117;-62
2021/07/09 09:37:12;;;;;;;2.08;1.10;;;;;;;33.84;21.40;101175.81;1883815;76;21011;-61
2021/07/09 09:39:45;;;;;;;3.25;1.22;;;;;;;33.89;21.69;101178.48;1881938;76;21003;-61
2021/07/09 09:42:23;;;;;;;4.12;1.20;;;;;;;33.83;21.40;101163.22;1882040;76;21066;-61
2021/07/09 09:45:04;;;;;;;4.70;1.20;;;;;;;33.89;21.04;101167.56;1883611;76;21031;-62
2021/07/09 09:47:35;;;;;;;6.42;1.45;;;;;;;33.79;20.57;101164.69;1882620;76;21083;-61
2021/07/09 09:50:06;;;;;;;5.97;1.42;;;;;;;33.72;20.49;101159.71;1883165;76;21082;-61
2021/07/09 09:52:43;;;;;;;4.93;1.13;;;;;;;33.65;20.66;101157.47;1883865;75;21067;-61
2021/07/09 09:55:17;;;;;;;10.55;2.15;;;;;;;33.50;20.01;101164.39;1869169;76;21055;-61
2021/07/09 09:57:47;;;;;;;7.22;1.82;;;;;;;33.51;21.22;101155.14;1883564;76;21106;-61
2021/07/09 10:00:18;;;;;;;3.40;1.30;;;;;;;33.54;21.14;101153.92;1883172;76;21097;-61
2021/07/09 10:02:48;;;;;;;3.75;1.22;;;;;;;33.57;20.92;101156.22;1882834;75;21477;-61
2021/07/09 10:05:17;;;;;;;2.72;1.20;;;;;;;33.46;20.92;101153.03;1883286;76;21039;-61
2021/07/09 10:07:46;;;;;;;5.37;1.65;;;;;;;33.40;21.42;101150.25;1883361;76;21101;-62
2021/07/09 10:10:17;;;;;;;3.30;1.50;;;;;;;33.28;21.28;101144.00;1882732;76;21588;-61
2021/07/09 10:12:48;;;;;;;3.65;1.22;;;;;;;33.26;21.92;101150.70;1883267;76;21015;-61
2021/07/09 10:15:18;;;;;;;6.15;1.75;;;;;;;33.14;21.93;101144.11;1883243;76;21027;-61
2021/07/09 10:17:51;;;;;;;7.17;2.10;;;;;;;32.95;21.83;101145.09;1882925;76;21505;-61
2021/07/09 10:20:21;;;;;;;3.87;1.50;;;;;;;32.92;22.75;101138.66;1883490;76;21011;-61
2021/07/09 10:22:51;;;;;;;4.67;1.80;;;;;;;32.94;22.89;101132.48;1883155;76;21027;-61
2021/07/09 10:25:23;;;;;;;6.97;1.62;;;;;;;32.96;22.82;101124.11;1882696;76;21124;-61
2021/07/09 10:27:52;;;;;;;3.87;1.47;;;;;;;32.96;22.93;101126.34;1883767;76;21124;-61
2021/07/09 10:30:21;;;;;;;2.52;1.40;;;;;;;33.04;23.41;101128.91;1883285;76;21034;-61
2021/07/09 10:32:50;;;;;;;4.15;1.50;;;;;;;33.04;23.35;101129.44;1883256;76;21120;-61
2021/07/09 10:35:41;;;;;;;11.45;3.15;;;;;;;32.96;23.75;101127.70;1883435;76;21561;-61
2021/07/09 10:38:14;;;;;;;13.62;2.75;;;;;;;33.00;24.15;101120.80;1883200;76;21035;-62
2021/07/09 10:40:43;;;;;;;4.37;1.45;;;;;;;32.96;23.62;101133.16;1883804;76;21035;-62
2021/07/09 10:43:14;;;;;;;6.40;1.87;;;;;;;32.97;23.48;101122.55;1883337;76;21136;-63
2021/07/09 10:45:45;;;;;;;11.55;2.08;;;;;;;32.87;23.25;101116.62;1882715;76;21136;-63
2021/07/09 10:48:16;;;;;;;6.05;1.72;;;;;;;32.89;23.96;101115.37;1879765;75;21183;-62
2021/07/09 10:50:52;;;;;;;4.80;1.85;;;;;;;32.93;23.42;101113.62;1878561;76;21090;-61
2021/07/09 10:53:25;;;;;;;7.05;1.70;;;;;;;32.75;23.56;101112.21;1878694;76;21038;-61
2021/07/09 10:56:02;;;;;;;6.28;1.50;;;;;;;32.57;24.62;101114.01;1878440;76;21494;-61
2021/07/09 10:58:43;;;;;;;6.30;1.60;;;;;;;32.46;24.89;101111.81;1878449;76;21003;-61
2021/07/09 11:01:21;;;;;;;7.17;1.70;;;;;;;32.28;24.81;101097.31;1877800;76;21478;-61
2021/07/09 11:03:59;;;;;;;6.70;2.05;;;;;;;32.15;25.02;101094.42;1878458;76;21027;-60
2021/07/09 11:06:36;;;;;;;8.28;1.70;;;;;;;32.13;25.54;101091.92;1878491;76;21113;-61
2021/07/09 11:09:08;;;;;;;4.65;1.50;;;;;;;32.01;24.01;101098.88;1878428;76;21039;-60
2021/07/09 11:11:46;;;;;;;7.95;1.70;;;;;;;31.90;23.55;101087.95;1874515;76;21426;-61
2021/07/09 11:14:20;;;;;;;5.58;1.40;;;;;;;31.81;23.21;101079.58;1878422;76;21082;-61
2021/07/09 11:17:09;;;;;;;5.83;1.67;;;;;;;31.68;22.90;101077.55;1877374;76;21520;-60
2021/07/09 11:19:30;;;;;;;4.83;1.45;;;;;;;31.51;23.32;101083.20;1874168;76;21085;-61
2021/07/09 11:22:10;;;;;;;3.40;1.40;;;;;;;31.49;23.60;101095.32;1878515;76;21019;-61
2021/07/09 11:24:56;;;;;;;4.83;1.67;;;;;;;31.41;23.35;101079.91;1878383;76;21066;-60
2021/07/09 11:27:25;;;;;;;4.33;1.57;;;;;;;31.33;23.63;101088.16;1878332;76;21238;-61
2021/07/09 11:29:59;;;;;;;13.25;2.35;;;;;;;31.25;23.70;101082.30;1878530;76;21039;-61
2021/07/09 11:32:25;;;;;;;7.62;2.17;;;;;;;31.25;24.40;101071.95;1878320;76;21102;-61
2021/07/09 11:34:56;;;;;;;6.65;1.77;;;;;;;31.36;25.00;101068.74;1878496;76;21039;-62